createdAt,value
2022-07-29T00:02:00.217Z,57.20
2022-07-29T00:04:31.670Z,56.40
2022-07-29T00:07:03.327Z,56.10
2022-07-29T00:09:42.960Z,56.00
2022-07-29T00:12:26.471Z,55.60
2022-07-29T00:14:58.893Z,55.10
2022-07-29T00:17:30.517Z,55.00
2022-07-29T00:20:01.785Z,55.20
2022-07-29T00:22:33.608Z,55.50
2022-07-29T00:25:08.322Z,55.80
2022-07-29T00:27:40.758Z,55.70
2022-07-29T00:30:12.155Z,56.30
2022-07-29T00:32:43.989Z,56.20
2022-07-29T00:35:27.690Z,56.10
2022-07-29T00:37:59.338Z,55.80
2022-07-29T00:40:33.315Z,55.90
2022-07-29T00:43:05.591Z,56.60
2022-07-29T00:45:36.993Z,56.90
2022-07-29T00:48:09.983Z,56.60
2022-07-29T00:50:43.212Z,56.70
2022-07-29T00:53:16.822Z,57.20
2022-07-29T00:55:52.735Z,57.10
2022-07-29T00:58:25.265Z,57.90
2022-07-29T01:00:57.185Z,57.40
2022-07-29T01:03:28.656Z,57.00
2022-07-29T01:06:00.315Z,56.40
2022-07-29T01:08:31.672Z,56.40
2022-07-29T01:11:06.305Z,55.70
2022-07-29T01:13:38.485Z,55.80
2022-07-29T01:16:17.060Z,54.90
2022-07-29T01:18:51.522Z,54.20
2022-07-29T01:21:48.846Z,54.50
2022-07-29T01:24:37.470Z,53.20
2022-07-29T01:27:24.074Z,52.70
2022-07-29T01:30:01.769Z,52.40
2022-07-29T01:32:40.278Z,52.20
2022-07-29T01:35:20.903Z,51.90
2022-07-29T01:37:59.546Z,52.00
2022-07-29T01:40:37.418Z,52.20
2022-07-29T01:43:14.521Z,51.90
2022-07-29T01:45:52.820Z,52.10
2022-07-29T01:48:27.293Z,51.40
2022-07-29T01:51:08.362Z,52.50
2022-07-29T01:53:46.486Z,52.10
2022-07-29T01:56:20.706Z,51.90
2022-07-29T01:58:53.122Z,52.00
2022-07-29T02:01:29.731Z,51.70
2022-07-29T02:04:03.439Z,51.20
2022-07-29T02:06:39.197Z,51.20
2022-07-29T02:09:12.161Z,51.10
2022-07-29T02:11:46.886Z,51.00
2022-07-29T02:14:19.811Z,51.30
2022-07-29T02:16:58.196Z,50.80
2022-07-29T02:19:31.355Z,50.80
2022-07-29T02:22:03.922Z,51.20
2022-07-29T02:24:35.442Z,50.50
2022-07-29T02:27:08.425Z,51.00
2022-07-29T02:29:40.759Z,49.80
2022-07-29T02:32:17.754Z,50.30
2022-07-29T02:34:50.431Z,49.90
2022-07-29T02:37:23.549Z,50.00
2022-07-29T02:39:57.821Z,49.70
2022-07-29T02:42:31.490Z,49.70
2022-07-29T02:45:02.742Z,49.20
2022-07-29T02:47:43.827Z,48.60
2022-07-29T02:50:19.318Z,48.60
2022-07-29T02:52:58.286Z,48.40
2022-07-29T02:55:33.711Z,48.30
2022-07-29T02:58:07.404Z,48.30
2022-07-29T03:00:42.465Z,48.00
2022-07-29T03:03:21.202Z,48.50
2022-07-29T03:05:52.538Z,48.70
2022-07-29T03:08:24.738Z,48.40
2022-07-29T03:10:56.896Z,48.70
2022-07-29T03:13:29.764Z,48.10
2022-07-29T03:16:01.936Z,48.10
2022-07-29T03:18:37.225Z,48.40
2022-07-29T03:21:08.804Z,47.90
2022-07-29T03:23:40.348Z,48.30
2022-07-29T03:26:11.638Z,49.10
2022-07-29T03:28:43.284Z,48.90
2022-07-29T03:31:14.593Z,49.10
2022-07-29T03:33:48.661Z,49.70
2022-07-29T03:36:19.940Z,49.70
2022-07-29T03:38:52.724Z,49.80
2022-07-29T03:41:26.521Z,50.20
2022-07-29T03:43:59.075Z,50.70
2022-07-29T03:46:32.782Z,50.50
2022-07-29T03:49:09.386Z,50.60
2022-07-29T03:51:41.113Z,51.00
2022-07-29T03:54:12.816Z,50.90
2022-07-29T03:56:47.885Z,51.50
2022-07-29T03:59:21.650Z,51.50
2022-07-29T04:01:53.995Z,52.40
2022-07-29T04:04:29.407Z,52.60
2022-07-29T04:07:00.658Z,52.70
2022-07-29T04:09:32.137Z,52.80
2022-07-29T04:12:04.401Z,52.70
2022-07-29T04:14:37.006Z,52.70
2022-07-29T04:17:08.981Z,52.70
2022-07-29T04:19:42.945Z,53.60
2022-07-29T04:22:14.151Z,51.30
2022-07-29T04:24:45.562Z,50.80
2022-07-29T04:27:16.662Z,48.10
2022-07-29T04:29:56.721Z,48.10
2022-07-29T04:32:28.796Z,48.60
2022-07-29T04:35:02.849Z,47.20
2022-07-29T04:37:34.137Z,47.60
2022-07-29T04:40:05.706Z,48.50
2022-07-29T04:42:45.059Z,49.80
2022-07-29T04:45:22.532Z,50.30
2022-07-29T04:47:54.232Z,51.80
2022-07-29T04:50:28.669Z,50.90
2022-07-29T04:52:59.913Z,49.60
2022-07-29T04:55:31.462Z,48.60
2022-07-29T04:58:02.787Z,49.30
2022-07-29T05:00:34.248Z,47.00
2022-07-29T05:03:05.502Z,46.20
2022-07-29T05:05:40.708Z,44.20
2022-07-29T05:08:12.033Z,43.80
2022-07-29T05:10:43.591Z,43.30
2022-07-29T05:13:14.894Z,41.80
2022-07-29T05:15:46.594Z,41.40
2022-07-29T05:18:18.026Z,41.70
2022-07-29T05:20:52.172Z,40.40
2022-07-29T05:23:23.429Z,41.80
2022-07-29T05:25:54.996Z,40.00
2022-07-29T05:28:26.212Z,39.50
2022-07-29T05:30:57.780Z,38.70
2022-07-29T05:33:35.091Z,39.20
2022-07-29T05:36:11.408Z,38.80
2022-07-29T05:38:42.974Z,40.10
2022-07-29T05:41:14.513Z,37.20
2022-07-29T05:43:45.734Z,37.90
2022-07-29T05:46:17.876Z,35.90
2022-07-29T05:48:49.262Z,37.40
2022-07-29T05:51:23.630Z,38.20
2022-07-29T05:53:54.958Z,36.70
2022-07-29T05:56:26.466Z,36.20
2022-07-29T05:58:58.027Z,36.60
2022-07-29T06:01:30.080Z,36.10
2022-07-29T06:04:01.186Z,37.40
2022-07-29T06:06:35.386Z,40.20
2022-07-29T06:09:12.229Z,34.70
2022-07-29T06:11:44.240Z,35.00
2022-07-29T06:14:15.806Z,36.60
2022-07-29T06:16:47.637Z,36.00
2022-07-29T06:19:18.972Z,36.20
2022-07-29T06:21:53.131Z,35.80
2022-07-29T06:24:24.383Z,35.50
2022-07-29T06:26:55.578Z,35.70
2022-07-29T06:29:26.910Z,34.70
2022-07-29T06:31:58.388Z,34.70
2022-07-29T06:34:29.652Z,35.60
2022-07-29T06:37:09.267Z,34.90
2022-07-29T06:39:47.209Z,34.20
2022-07-29T06:42:18.811Z,32.30
2022-07-29T06:44:51.779Z,34.70
2022-07-29T06:47:23.252Z,33.20
2022-07-29T06:49:54.340Z,33.20
2022-07-29T06:52:28.524Z,32.10
2022-07-29T06:55:00.825Z,33.10
2022-07-29T06:57:32.288Z,33.80
2022-07-29T07:00:05.488Z,34.40
2022-07-29T07:02:37.142Z,30.80
2022-07-29T07:05:10.087Z,31.30
2022-07-29T07:07:44.340Z,32.40
2022-07-29T07:10:16.039Z,32.10
2022-07-29T07:12:47.684Z,31.50
2022-07-29T07:15:22.871Z,31.00
2022-07-29T07:18:11.028Z,33.00
2022-07-29T07:20:42.332Z,32.60
2022-07-29T07:23:16.496Z,33.60
2022-07-29T07:25:47.684Z,33.70
2022-07-29T07:28:19.236Z,33.30
2022-07-29T07:30:56.422Z,32.70
2022-07-29T07:33:28.044Z,31.40
2022-07-29T07:35:59.671Z,32.90
2022-07-29T07:38:33.810Z,34.80
2022-07-29T07:41:05.597Z,35.90
2022-07-29T07:43:37.127Z,36.40
2022-07-29T07:46:08.620Z,35.50
2022-07-29T07:48:40.718Z,35.50
2022-07-29T07:51:12.811Z,36.10
2022-07-29T07:53:50.588Z,35.90
2022-07-29T07:56:22.125Z,35.50
2022-07-29T07:58:54.357Z,34.80
2022-07-29T08:01:25.798Z,33.70
2022-07-29T08:03:57.564Z,33.70
2022-07-29T08:06:28.941Z,35.60
2022-07-29T08:09:26.650Z,33.70
2022-07-29T08:11:54.610Z,35.80
2022-07-29T08:14:25.736Z,33.50
2022-07-29T08:16:56.954Z,32.70
2022-07-29T08:19:28.694Z,34.20
2022-07-29T08:21:59.934Z,34.00
2022-07-29T08:24:46.382Z,33.80
2022-07-29T08:27:41.931Z,34.30
2022-07-29T08:30:11.830Z,32.10
2022-07-29T08:32:53.615Z,32.90
2022-07-29T08:35:30.926Z,33.10
2022-07-29T08:38:04.693Z,34.50
2022-07-29T08:40:38.591Z,34.10
2022-07-29T08:43:10.741Z,32.80
2022-07-29T08:45:48.575Z,33.60
2022-07-29T08:48:22.216Z,33.60
2022-07-29T08:51:01.627Z,33.90
2022-07-29T08:53:34.292Z,32.40
2022-07-29T08:56:09.970Z,33.60
2022-07-29T08:58:41.225Z,31.80
2022-07-29T09:01:15.825Z,32.20
2022-07-29T09:03:50.045Z,31.70
2022-07-29T09:06:27.762Z,32.20
2022-07-29T09:09:02.280Z,31.40
2022-07-29T09:11:36.736Z,32.20
2022-07-29T09:14:08.097Z,31.60
2022-07-29T09:16:53.768Z,30.80
2022-07-29T09:19:32.804Z,31.60
2022-07-29T09:22:06.340Z,31.90
2022-07-29T09:24:43.187Z,31.00
2022-07-29T09:27:27.099Z,32.20
2022-07-29T09:30:02.580Z,32.10
2022-07-29T09:32:35.630Z,32.20
2022-07-29T09:35:19.336Z,32.30
2022-07-29T09:37:51.758Z,31.20
2022-07-29T09:40:24.689Z,31.20
2022-07-29T09:42:59.491Z,31.20
2022-07-29T09:45:33.165Z,32.50
2022-07-29T09:48:18.406Z,31.50
2022-07-29T09:50:50.928Z,30.30
2022-07-29T09:53:36.301Z,31.00
2022-07-29T09:56:08.736Z,30.90
2022-07-29T09:58:43.852Z,31.30
2022-07-29T10:01:16.236Z,29.80
2022-07-29T10:03:57.078Z,30.40
2022-07-29T10:06:28.372Z,30.50
2022-07-29T10:09:12.178Z,31.20
2022-07-29T10:11:49.487Z,29.80
2022-07-29T10:14:24.114Z,29.50
2022-07-29T10:16:55.599Z,30.80
2022-07-29T10:19:27.579Z,29.60
2022-07-29T10:22:00.175Z,30.00
2022-07-29T10:24:33.690Z,30.30
2022-07-29T10:27:06.857Z,30.00
2022-07-29T10:29:41.149Z,30.00
2022-07-29T10:32:27.611Z,30.30
2022-07-29T10:35:42.421Z,30.30
2022-07-29T10:38:48.070Z,30.30
2022-07-29T10:41:44.733Z,30.80
2022-07-29T10:44:23.198Z,32.20
2022-07-29T10:46:58.498Z,30.20
2022-07-29T10:49:31.699Z,29.90
2022-07-29T10:52:06.875Z,30.00
2022-07-29T10:54:47.389Z,28.60
2022-07-29T10:57:21.878Z,28.60
2022-07-29T11:00:36.310Z,28.60
2022-07-29T11:03:11.792Z,27.60
2022-07-29T11:05:59.804Z,28.60
2022-07-29T11:08:32.021Z,28.20
2022-07-29T11:11:37.999Z,28.40
2022-07-29T11:14:10.662Z,27.90
2022-07-29T11:17:06.928Z,28.50
2022-07-29T11:19:46.801Z,28.00
2022-07-29T11:22:36.658Z,28.20
2022-07-29T11:25:17.827Z,28.00
2022-07-29T11:27:50.032Z,27.70
2022-07-29T11:30:25.118Z,28.70
2022-07-29T11:32:56.542Z,29.00
2022-07-29T11:35:38.260Z,28.30
2022-07-29T11:38:31.879Z,28.60
2022-07-29T11:41:27.132Z,28.40
2022-07-29T11:44:01.572Z,28.00
2022-07-29T11:46:50.976Z,28.60
2022-07-29T11:49:32.408Z,28.90
2022-07-29T11:52:08.321Z,28.60
2022-07-29T11:54:58.095Z,28.40
2022-07-29T11:57:35.965Z,27.90
2022-07-29T12:00:12.526Z,28.40
2022-07-29T12:02:48.458Z,29.40
2022-07-29T12:08:16.112Z,27.20
2022-07-29T12:10:48.144Z,28.20
2022-07-29T12:13:22.397Z,27.00
2022-07-29T12:15:59.763Z,28.00
2022-07-29T12:18:31.905Z,27.20
2022-07-29T12:21:05.365Z,27.40
2022-07-29T12:23:39.627Z,27.60
2022-07-29T12:26:25.499Z,27.90
2022-07-29T12:28:57.814Z,28.20
2022-07-29T12:31:42.230Z,27.50
2022-07-29T12:34:16.390Z,28.40
2022-07-29T12:36:47.999Z,27.40
2022-07-29T12:39:22.866Z,27.30
2022-07-29T12:41:54.239Z,27.90
2022-07-29T12:44:50.526Z,28.10
2022-07-29T12:47:23.224Z,28.00
2022-07-29T12:50:10.842Z,27.90
2022-07-29T12:52:42.169Z,27.50
2022-07-29T12:55:16.482Z,27.20
2022-07-29T12:57:51.841Z,26.00
2022-07-29T13:00:27.742Z,27.50
2022-07-29T13:03:00.173Z,28.20
2022-07-29T13:05:49.154Z,27.10
2022-07-29T13:08:22.916Z,26.50
2022-07-29T13:10:57.555Z,26.70
2022-07-29T13:13:28.845Z,27.00
2022-07-29T13:16:11.730Z,25.90
2022-07-29T13:18:42.992Z,27.40
2022-07-29T13:21:16.133Z,26.40
2022-07-29T13:23:47.807Z,26.50
2022-07-29T13:26:22.058Z,27.00
2022-07-29T13:28:53.344Z,27.00
2022-07-29T13:31:25.837Z,27.20
2022-07-29T13:33:57.541Z,27.80
2022-07-29T13:36:29.110Z,27.70
2022-07-29T13:39:02.292Z,28.20
2022-07-29T13:41:36.616Z,27.20
2022-07-29T13:44:08.486Z,26.90
2022-07-29T13:46:40.254Z,27.50
2022-07-29T13:49:12.634Z,27.80
2022-07-29T13:51:44.160Z,26.70
2022-07-29T13:54:15.691Z,27.40
2022-07-29T13:56:49.997Z,26.30
2022-07-29T13:59:21.294Z,27.00
2022-07-29T14:01:53.218Z,26.80
2022-07-29T14:04:24.703Z,27.40
2022-07-29T14:06:56.384Z,26.90
2022-07-29T14:09:27.701Z,26.80
2022-07-29T14:12:03.610Z,26.30
2022-07-29T14:14:38.054Z,26.40
2022-07-29T14:17:10.195Z,26.80
2022-07-29T14:19:41.759Z,26.60
2022-07-29T14:22:13.799Z,26.80
2022-07-29T14:24:45.317Z,26.50
2022-07-29T14:27:20.110Z,26.90
2022-07-29T14:30:11.253Z,27.60
2022-07-29T14:32:43.029Z,28.00
2022-07-29T14:35:34.393Z,27.40
2022-07-29T14:38:05.600Z,26.80
2022-07-29T14:40:37.644Z,27.00
2022-07-29T14:43:11.901Z,27.00
2022-07-29T14:45:43.346Z,27.10
2022-07-29T14:48:15.178Z,26.90
2022-07-29T14:50:46.169Z,28.10
2022-07-29T14:53:17.842Z,26.80
2022-07-29T14:55:48.855Z,27.00
2022-07-29T14:58:23.848Z,26.90
2022-07-29T15:00:55.881Z,27.10
2022-07-29T15:03:29.009Z,27.40
2022-07-29T15:06:00.697Z,26.50
2022-07-29T15:08:32.473Z,26.60
2022-07-29T15:11:03.485Z,26.90
2022-07-29T15:13:37.848Z,27.40
2022-07-29T15:16:10.402Z,28.40
2022-07-29T15:18:43.312Z,28.50
2022-07-29T15:21:15.335Z,28.20
2022-07-29T15:23:47.098Z,28.20
2022-07-29T15:26:19.227Z,29.30
2022-07-29T15:28:53.686Z,28.60
2022-07-29T15:31:25.277Z,28.60
2022-07-29T15:33:59.444Z,28.80
2022-07-29T15:39:25.200Z,28.70
2022-07-29T15:41:56.797Z,29.30
2022-07-29T15:44:31.112Z,29.00
2022-07-29T15:47:09.095Z,29.10
2022-07-29T15:49:46.676Z,29.70
2022-07-29T15:52:25.760Z,29.70
2022-07-29T15:54:58.744Z,29.50
2022-07-29T15:57:29.970Z,29.30
2022-07-29T16:00:04.063Z,29.40
2022-07-29T16:02:39.295Z,29.60
2022-07-29T16:05:11.119Z,30.10
2022-07-29T16:07:42.012Z,30.60
2022-07-29T16:10:13.409Z,30.00
2022-07-29T16:12:44.719Z,30.30
2022-07-29T16:15:18.522Z,30.50
2022-07-29T16:17:50.582Z,30.40
2022-07-29T16:20:22.565Z,30.40
2022-07-29T16:22:54.083Z,30.30
2022-07-29T16:25:49.997Z,30.50
2022-07-29T16:30:00.246Z,57.90
2022-07-29T16:32:33.857Z,45.30
2022-07-29T16:35:05.588Z,44.00
2022-07-29T16:37:38.191Z,43.40
2022-07-29T16:40:11.987Z,43.20
2022-07-29T16:42:47.081Z,43.20
2022-07-29T16:45:21.655Z,43.50
2022-07-29T16:47:57.202Z,45.40
2022-07-29T16:50:31.935Z,52.30
2022-07-29T16:53:03.788Z,65.50
2022-07-29T16:55:35.290Z,72.60
2022-07-29T16:58:07.181Z,75.90
2022-07-29T17:00:41.985Z,78.20
2022-07-29T17:03:13.670Z,79.00
2022-07-29T17:05:52.338Z,78.60
2022-07-29T17:08:26.522Z,77.70
2022-07-29T17:10:57.880Z,75.50
2022-07-29T17:13:29.016Z,75.90
2022-07-29T17:16:02.867Z,73.60
2022-07-29T17:18:34.520Z,81.30
2022-07-29T17:21:06.042Z,83.40
2022-07-29T17:23:37.607Z,83.60
2022-07-29T17:26:09.012Z,79.40
2022-07-29T17:28:40.945Z,82.40
2022-07-29T17:31:15.896Z,77.10
2022-07-29T17:33:47.522Z,78.20
2022-07-29T17:36:28.013Z,81.80
2022-07-29T17:39:00.802Z,79.60
2022-07-29T17:41:32.307Z,82.70
2022-07-29T17:44:04.064Z,82.10
2022-07-29T17:46:38.183Z,82.00
2022-07-29T17:49:10.266Z,80.40
2022-07-29T17:51:41.697Z,80.70
2022-07-29T17:54:13.453Z,78.80
2022-07-29T17:56:44.546Z,75.60
2022-07-29T17:59:16.126Z,76.50
2022-07-29T18:01:50.072Z,74.50
2022-07-29T18:04:23.636Z,78.40
2022-07-29T18:06:54.954Z,79.30
2022-07-29T18:09:26.668Z,79.60
2022-07-29T18:11:58.011Z,78.90
2022-07-29T18:14:29.575Z,82.00
2022-07-29T18:17:03.513Z,82.00
2022-07-29T18:19:35.023Z,83.90
2022-07-29T18:22:07.625Z,81.10
2022-07-29T18:24:39.299Z,84.10
2022-07-29T18:27:11.094Z,87.30
2022-07-29T18:29:42.625Z,86.00
2022-07-29T18:32:16.493Z,81.00
2022-07-29T18:34:48.178Z,78.90
2022-07-29T18:37:19.433Z,79.60
2022-07-29T18:40:13.199Z,84.00
2022-07-29T18:42:44.425Z,81.70
2022-07-29T18:45:19.171Z,84.30
2022-07-29T18:47:53.611Z,85.20
2022-07-29T18:50:29.288Z,87.10
2022-07-29T18:53:03.471Z,81.70
2022-07-29T18:55:34.966Z,81.10
2022-07-29T18:58:06.303Z,78.90
2022-07-29T19:00:37.930Z,75.20
2022-07-29T19:03:12.108Z,82.10
2022-07-29T19:05:43.646Z,85.00
2022-07-29T19:08:14.930Z,85.20
2022-07-29T19:10:46.702Z,86.20
2022-07-29T19:13:18.101Z,85.10
2022-07-29T19:15:49.349Z,84.80
2022-07-29T19:18:23.117Z,84.80
2022-07-29T19:20:54.734Z,77.20
2022-07-29T19:23:26.107Z,76.30
2022-07-29T19:25:57.682Z,77.10
2022-07-29T19:28:29.079Z,79.00
2022-07-29T19:31:00.854Z,78.80
2022-07-29T19:33:34.928Z,77.20
2022-07-29T19:36:06.592Z,76.00
2022-07-29T19:38:38.418Z,73.60
2022-07-29T19:41:09.834Z,77.30
2022-07-29T19:43:51.149Z,74.70
2022-07-29T19:46:24.493Z,72.60
2022-07-29T19:48:59.014Z,79.50
2022-07-29T19:51:30.785Z,76.20
2022-07-29T19:54:02.130Z,74.80
2022-07-29T19:56:33.587Z,76.50
2022-07-29T19:59:07.284Z,78.00
2022-07-29T20:01:39.776Z,80.40
2022-07-29T20:04:13.693Z,76.60
2022-07-29T20:06:45.506Z,80.60
2022-07-29T20:09:20.361Z,71.30
2022-07-29T20:11:52.309Z,71.10
2022-07-29T20:14:23.718Z,69.80
2022-07-29T20:16:56.028Z,72.00
2022-07-29T20:19:31.058Z,75.10
2022-07-29T20:22:02.786Z,71.60
2022-07-29T20:24:34.425Z,73.70
2022-07-29T20:27:13.719Z,69.40
2022-07-29T20:29:45.560Z,79.60
2022-07-29T20:32:17.045Z,77.10
2022-07-29T20:34:50.909Z,71.70
2022-07-29T20:37:22.436Z,81.20
2022-07-29T20:39:53.628Z,86.30
2022-07-29T20:42:25.268Z,75.20
2022-07-29T20:44:58.089Z,89.40
2022-07-29T20:47:29.604Z,83.70
2022-07-29T20:50:03.964Z,78.60
2022-07-29T20:52:35.648Z,82.70
2022-07-29T20:55:07.757Z,74.80
2022-07-29T20:57:40.130Z,82.40
2022-07-29T21:00:12.665Z,85.00
2022-07-29T21:02:44.367Z,87.30
2022-07-29T21:05:18.291Z,92.60
2022-07-29T21:07:50.090Z,90.10
2022-07-29T21:10:21.684Z,92.20
2022-07-29T21:12:53.247Z,88.90
2022-07-29T21:15:24.920Z,90.20
2022-07-29T21:18:00.751Z,90.10
2022-07-29T21:20:34.729Z,87.00
2022-07-29T21:23:07.917Z,87.50
2022-07-29T21:25:39.493Z,83.00
2022-07-29T21:28:23.312Z,85.30
2022-07-29T21:30:54.608Z,88.20
2022-07-29T21:33:26.488Z,84.40
2022-07-29T21:36:42.438Z,81.00
2022-07-29T21:38:52.137Z,82.10
2022-07-29T21:41:23.372Z,79.40
2022-07-29T21:43:55.052Z,80.10
2022-07-29T21:46:29.796Z,79.70
2022-07-29T21:49:01.252Z,80.10
2022-07-29T21:51:35.206Z,80.10
2022-07-29T21:54:07.043Z,80.30
2022-07-29T21:56:39.693Z,80.30
2022-07-29T21:59:12.946Z,81.10
2022-07-29T22:01:44.425Z,84.20
2022-07-29T22:04:16.069Z,80.70
2022-07-29T22:06:50.070Z,79.90
2022-07-29T22:09:21.676Z,81.30
2022-07-29T22:11:53.041Z,84.10
2022-07-29T22:14:24.629Z,81.90
2022-07-29T22:16:58.305Z,81.10
2022-07-29T22:19:30.349Z,81.80
2022-07-29T22:22:04.969Z,81.40
2022-07-29T22:24:36.900Z,79.60
2022-07-29T22:27:08.627Z,80.00
2022-07-29T22:29:40.302Z,79.30
2022-07-29T22:32:11.604Z,79.30
2022-07-29T22:34:43.054Z,79.10
2022-07-29T22:37:16.908Z,78.20
2022-07-29T22:39:48.445Z,78.00
2022-07-29T22:42:19.825Z,78.20
2022-07-29T22:44:51.035Z,80.20
2022-07-29T22:47:46.243Z,77.90
2022-07-29T22:50:13.748Z,78.10
2022-07-29T22:52:47.707Z,77.20
2022-07-29T22:55:19.210Z,77.40
2022-07-29T22:57:50.448Z,78.80
2022-07-29T23:00:22.207Z,77.30
2022-07-29T23:02:53.440Z,76.80
2022-07-29T23:05:24.944Z,76.00
2022-07-29T23:07:58.831Z,74.00
2022-07-29T23:10:30.808Z,78.20
2022-07-29T23:13:02.115Z,74.70
2022-07-29T23:15:33.328Z,77.40
2022-07-29T23:18:04.521Z,76.70
2022-07-29T23:20:36.320Z,74.50
2022-07-29T23:23:10.104Z,72.60
2022-07-29T23:25:41.627Z,72.70
2022-07-29T23:28:13.402Z,73.40
2022-07-29T23:30:45.433Z,73.40
2022-07-29T23:33:16.706Z,77.60
2022-07-29T23:35:48.316Z,73.70
2022-07-29T23:38:22.167Z,73.40
2022-07-29T23:40:53.923Z,77.40
2022-07-29T23:43:25.241Z,75.20
2022-07-29T23:45:58.089Z,74.60
2022-07-29T23:48:31.959Z,74.00
2022-07-29T23:51:03.525Z,72.60
2022-07-29T23:53:38.906Z,73.60
2022-07-29T23:56:25.885Z,75.10
2022-07-29T23:58:57.303Z,75.10
